Ayrshire, United Kingdom
Current Conditions -  °F | °C
As of 8:50 AM on Wednesday 28 Jan 2015 (Local Time) from EGPK Reporting Station
Broken Clouds Broken Clouds  
Wind Chill: 25°   Ceiling: 2500
Heat Index: 37°   Visibility: 6mi
Dew Point: 32°   Wind: 30mph
Humidity: 81%   Direction: 280°W
Pressure: 29.29"   Gusts: 47mph
Location:  55.39°N, 4.46°W
Report Text: EGPK 280850Z 28026G41KT 9999 SCT010 BKN025CB 03/00 Q0992
Loading
Personal Weather Stations






























Interactive Weather Map New forecast layout! Learn more

10-Day Weather Forecast

Advertisements
Track Severe Weather on mobile